メインページ
METAR-TAF:

METAR-TAF

空港 :

タシュケント, ウズベキスタン

タシュケント国際空港

緯度: 41-16N, 経度: 069-16E, 海抜: 489m

現時点の気象観測

当レポートは48分前の00:30(UTC)に作成
西の風 6kt、西/南西からの間で変化する
気温 25°C
湿度 44%
気圧 1011 hPa
視程10km以上
高度6600ftの雲は散在している, 積乱雲.

METAR: UTTT 230030Z 28006KT 240V360 9999 SCT066CB 25/12 Q1011 R08R/CLRD70 NOSIG

時間: 06:18 (01:18 UTC)

予報

当レポートは2時間18分前の23:00(UTC)に作成
予報は23日の 00時(UTC)から 23日の 24時(UTC)まで有効
北西の風 12kt
視程: 7000m
高度6000ftの雲はほとんどない, 積乱雲.
高度10000ftの雲は散在している
23日の 00時(UTC)から 23日の 12時(UTC)まで一時的に
変向風 15kt、最大25ktの突風を伴う
視程: 3000m
高度5000ftの雲は散在している, 積乱雲.
高度10000ftの千切れ雲あり
激しい雷雨, 小雨

TAF: UTTT 222300Z 2300/2324 32012KT 7000 FEW060CB SCT100 TEMPO 2300/2312 VRB15G25KT 3000 -TSRA -DS SCT050CB BKN100

4,000以上の空港の気象観測と天気予報(METAR報とTAF報)

利用可能な観測所は地図上に黄色い丸と赤い丸で示す。

丸の上にカーソルを重ねると観測所名を参照できる。

次にクリックすると気象観測と天気予報を参照できる。

マップの切り替え:黒色「×」印の緑ボタンをクリックして拡大、「-」印の緑ボタンをクリックして縮小、緑色の三角印をクリックして隣りの地図に切り替え


METAR-TAF: